Time;durP1;ratioP1;P1;durP2;ratioP2;P2;SDS_P1;SDS_P2;PMS_P1;PMS_P2;Temp;Humidity;BMP_temperature;BMP_pressure;BME280_temperature;BME280_humidity;BME280_pressure;Samples;Min_cycle;Max_cycle;Signal;HPM_P1;HPM_P2
2021/07/09 00:01:03;;;;;;;5.60;4.40;;;18.10;88.20;;;;;;2085716;28;20029;-84
2021/07/09 00:02:04;;;;;;;5.03;4.03;;;18.10;88.10;;;;;;2089684;28;20029;-85
2021/07/09 00:03:05;;;;;;;5.97;4.30;;;18.10;88.20;;;;;;2081000;28;20021;-84
2021/07/09 00:04:06;;;;;;;5.75;4.50;;;18.10;88.20;;;;;;2072688;28;20116;-84
2021/07/09 00:05:07;;;;;;;6.05;4.57;;;18.10;88.20;;;;;;2071296;28;20069;-84
2021/07/09 00:06:08;;;;;;;6.13;4.50;;;18.10;88.80;;;;;;2081352;28;20040;-84
2021/07/09 00:07:09;;;;;;;6.47;4.85;;;18.00;88.20;;;;;;2071557;28;20045;-84
2021/07/09 00:08:09;;;;;;;6.25;4.78;;;18.00;88.20;;;;;;2058688;28;20413;-84
2021/07/09 00:09:10;;;;;;;6.68;4.80;;;18.00;88.30;;;;;;2049578;28;20118;-84
2021/07/09 00:10:11;;;;;;;6.57;4.75;;;18.00;88.40;;;;;;2071227;28;20396;-83
2021/07/09 00:11:12;;;;;;;5.93;4.53;;;18.00;88.40;;;;;;2086157;28;20040;-84
2021/07/09 00:12:14;;;;;;;6.50;4.68;;;18.00;88.40;;;;;;2079462;28;20025;-84
2021/07/09 00:13:14;;;;;;;7.45;4.75;;;18.00;88.40;;;;;;2071816;28;20034;-85
2021/07/09 00:14:17;;;;;;;6.30;4.97;;;18.00;88.30;;;;;;2072187;28;20026;-84
2021/07/09 00:15:18;;;;;;;5.63;4.82;;;18.00;88.30;;;;;;2078249;28;20029;-84
2021/07/09 00:16:19;;;;;;;6.88;5.15;;;18.00;88.30;;;;;;2066838;28;20121;-84
2021/07/09 00:17:20;;;;;;;5.97;4.93;;;18.10;88.30;;;;;;2072891;28;20030;-84
2021/07/09 00:18:21;;;;;;;6.20;4.82;;;18.10;88.30;;;;;;2065023;28;20515;-84
2021/07/09 00:19:22;;;;;;;6.60;5.10;;;18.00;88.20;;;;;;2089309;28;20033;-84
2021/07/09 00:20:22;;;;;;;7.47;5.00;;;18.10;88.30;;;;;;2080993;28;20160;-84
2021/07/09 00:21:23;;;;;;;6.68;5.40;;;18.10;88.20;;;;;;2072777;28;20546;-84
2021/07/09 00:22:23;;;;;;;7.05;5.55;;;18.10;88.20;;;;;;2062721;28;20039;-84
2021/07/09 00:23:24;;;;;;;7.80;5.55;;;18.00;88.20;;;;;;2057687;28;20113;-84
2021/07/09 00:24:25;;;;;;;6.30;4.93;;;18.00;88.10;;;;;;2075511;28;20515;-83
2021/07/09 00:25:26;;;;;;;6.63;5.05;;;18.00;88.10;;;;;;2081000;28;20063;-84
2021/07/09 00:26:28;;;;;;;6.38;5.40;;;18.00;88.10;;;;;;2080490;28;20026;-84
2021/07/09 00:27:28;;;;;;;6.10;5.00;;;18.00;88.10;;;;;;2072131;28;20121;-84
2021/07/09 00:28:29;;;;;;;6.30;4.95;;;18.00;88.10;;;;;;2064266;28;20026;-84
2021/07/09 00:29:30;;;;;;;7.63;5.15;;;17.90;88.00;;;;;;2071096;28;20096;-84
2021/07/09 00:30:31;;;;;;;6.40;5.50;;;17.90;88.10;;;;;;2072749;28;20134;-84
2021/07/09 00:31:33;;;;;;;6.75;5.30;;;17.90;88.20;;;;;;2064035;28;20026;-84
2021/07/09 00:32:33;;;;;;;6.50;5.15;;;17.90;88.20;;;;;;2064789;28;20077;-84
2021/07/09 00:33:34;;;;;;;8.32;5.38;;;17.90;88.20;;;;;;2072561;28;20467;-84
2021/07/09 00:34:35;;;;;;;7.32;5.43;;;17.90;88.30;;;;;;2082238;28;20040;-84
2021/07/09 00:35:35;;;;;;;7.93;5.38;;;17.90;88.20;;;;;;2066174;28;20069;-84
2021/07/09 00:36:37;;;;;;;7.18;5.60;;;17.80;88.20;;;;;;2058054;28;20055;-83
2021/07/09 00:37:37;;;;;;;6.28;5.07;;;17.80;88.80;;;;;;2065865;28;20023;-84
2021/07/09 00:38:38;;;;;;;6.28;5.47;;;17.90;88.30;;;;;;2063502;28;20404;-84
2021/07/09 00:39:39;;;;;;;6.35;5.28;;;17.80;88.20;;;;;;2058170;28;20023;-84
2021/07/09 00:40:39;;;;;;;6.93;5.20;;;17.80;88.20;;;;;;2064006;28;20023;-84
2021/07/09 00:41:40;;;;;;;6.85;5.60;;;17.80;88.20;;;;;;2063103;28;20023;-84
2021/07/09 00:42:42;;;;;;;7.38;5.55;;;17.80;88.20;;;;;;2054954;28;20066;-84
2021/07/09 00:43:43;;;;;;;8.57;5.60;;;17.80;88.20;;;;;;2044457;28;20024;-84
2021/07/09 00:44:43;;;;;;;6.80;5.35;;;17.80;88.10;;;;;;2042239;29;20031;-84
2021/07/09 00:45:44;;;;;;;7.60;5.88;;;17.80;88.10;;;;;;2049555;28;20034;-84
2021/07/09 00:46:47;;;;;;;8.27;6.38;;;17.80;88.10;;;;;;2057004;28;20035;-84
2021/07/09 00:47:49;;;;;;;8.45;6.38;;;17.70;88.00;;;;;;2066406;28;20030;-84
2021/07/09 00:48:50;;;;;;;7.38;5.88;;;17.70;88.00;;;;;;2074220;28;20025;-84
2021/07/09 00:49:50;;;;;;;7.45;5.93;;;17.70;88.10;;;;;;2082244;28;20120;-84
2021/07/09 00:50:51;;;;;;;8.63;6.38;;;17.60;88.20;;;;;;2073052;28;20029;-84
2021/07/09 00:51:52;;;;;;;9.55;6.78;;;17.60;88.20;;;;;;2073206;28;20076;-84
2021/07/09 00:52:53;;;;;;;8.68;6.15;;;17.60;88.20;;;;;;2065876;28;20037;-84
2021/07/09 00:53:53;;;;;;;8.82;5.85;;;17.60;88.20;;;;;;2065867;28;20019;-84
2021/07/09 00:54:54;;;;;;;9.13;6.13;;;17.50;88.10;;;;;;2073897;28;20121;-84
2021/07/09 00:55:55;;;;;;;7.95;5.70;;;17.60;88.20;;;;;;2073560;28;20034;-84
2021/07/09 00:56:56;;;;;;;8.13;6.03;;;17.60;88.20;;;;;;2065666;28;20125;-84
2021/07/09 00:58:00;;;;;;;8.13;6.38;;;17.50;88.10;;;;;;2067059;28;20041;-83
2021/07/09 00:59:02;;;;;;;8.35;6.22;;;17.50;88.20;;;;;;2080167;28;20484;-84
2021/07/09 01:00:05;;;;;;;8.38;6.05;;;17.50;88.20;;;;;;2079380;28;20037;-84
2021/07/09 01:01:06;;;;;;;8.18;6.00;;;17.50;88.20;;;;;;2074286;28;20164;-84
2021/07/09 01:02:07;;;;;;;9.60;6.72;;;17.50;88.20;;;;;;2074086;28;20038;-84
2021/07/09 01:03:08;;;;;;;7.10;5.78;;;17.50;88.20;;;;;;2066859;28;20061;-84
2021/07/09 01:04:09;;;;;;;8.40;6.32;;;17.50;88.30;;;;;;2082318;28;20041;-84
2021/07/09 01:05:12;;;;;;;9.18;5.90;;;17.40;88.20;;;;;;2067281;28;20030;-84
2021/07/09 01:06:16;;;;;;;9.38;6.30;;;17.40;88.30;;;;;;2066266;28;20034;-84
2021/07/09 01:07:16;;;;;;;8.15;6.03;;;17.50;88.30;;;;;;2073669;28;20034;-84
2021/07/09 01:08:18;;;;;;;8.95;6.30;;;17.40;88.20;;;;;;2057790;28;20482;-84
2021/07/09 01:09:18;;;;;;;7.88;6.30;;;17.40;88.20;;;;;;2057699;28;20042;-84
2021/07/09 01:10:20;;;;;;;7.90;5.82;;;17.40;88.20;;;;;;2058194;28;20079;-85
2021/07/09 01:11:21;;;;;;;7.63;5.65;;;17.40;88.30;;;;;;2063790;28;20026;-85
2021/07/09 01:12:22;;;;;;;8.70;6.57;;;17.40;88.30;;;;;;2049997;28;20071;-84
2021/07/09 01:13:23;;;;;;;8.40;6.00;;;17.40;88.30;;;;;;2066100;28;20112;-84
2021/07/09 01:14:23;;;;;;;7.70;5.75;;;17.40;88.30;;;;;;2072468;28;20030;-84
2021/07/09 01:15:24;;;;;;;8.20;5.88;;;17.40;88.30;;;;;;2065277;28;20040;-84
2021/07/09 01:16:25;;;;;;;8.52;6.25;;;17.40;88.30;;;;;;2065504;28;20066;-84
2021/07/09 01:17:26;;;;;;;7.80;6.53;;;17.40;88.30;;;;;;2064765;28;20034;-84
2021/07/09 01:18:27;;;;;;;7.78;5.95;;;17.40;88.30;;;;;;2073926;28;20052;-84
2021/07/09 01:19:27;;;;;;;7.95;5.90;;;17.40;88.30;;;;;;2073775;28;20026;-84
2021/07/09 01:20:28;;;;;;;8.25;6.10;;;17.30;88.20;;;;;;2081415;28;20026;-85
2021/07/09 01:21:29;;;;;;;8.73;6.43;;;17.30;88.30;;;;;;2081458;28;20067;-84
2021/07/09 01:22:31;;;;;;;7.85;6.18;;;17.30;88.30;;;;;;2065356;28;20030;-85
2021/07/09 01:23:33;;;;;;;9.65;6.70;;;17.30;88.30;;;;;;2057902;28;20031;-84
2021/07/09 01:24:35;;;;;;;8.75;6.70;;;17.30;88.40;;;;;;2074195;28;20030;-84
2021/07/09 01:25:36;;;;;;;8.23;6.35;;;17.30;88.90;;;;;;2090101;28;20036;-83
2021/07/09 01:26:39;;;;;;;9.02;6.47;;;17.20;88.20;;;;;;2076215;28;20028;-84
2021/07/09 01:27:42;;;;;;;8.68;6.72;;;17.20;88.20;;;;;;2058742;28;20074;-84
2021/07/09 01:28:43;;;;;;;8.75;6.38;;;17.20;88.30;;;;;;2066261;28;20030;-83
2021/07/09 01:29:44;;;;;;;9.75;6.85;;;17.20;88.40;;;;;;2073467;28;20077;-84
2021/07/09 01:30:45;;;;;;;8.63;6.22;;;17.10;88.30;;;;;;2064902;28;20034;-84
2021/07/09 01:31:45;;;;;;;9.25;6.60;;;17.10;88.40;;;;;;2073750;28;20033;-84
2021/07/09 01:32:48;;;;;;;8.40;6.70;;;17.10;88.50;;;;;;2065735;28;20057;-84
2021/07/09 01:33:48;;;;;;;9.85;6.75;;;17.10;88.50;;;;;;2057352;28;20043;-84
2021/07/09 01:34:49;;;;;;;8.70;6.50;;;17.10;88.50;;;;;;2065211;28;20113;-84
2021/07/09 01:35:49;;;;;;;8.23;6.60;;;17.10;88.60;;;;;;2065351;28;20081;-84
2021/07/09 01:36:50;;;;;;;8.05;6.35;;;17.10;88.60;;;;;;2070803;28;20092;-85
2021/07/09 01:38:05;;;;;;;8.18;6.30;;;17.10;88.50;;;;;;2081883;28;20034;-84
2021/07/09 01:39:05;;;;;;;7.85;6.28;;;17.10;88.50;;;;;;2092179;28;20018;-84
2021/07/09 01:40:08;;;;;;;8.82;6.60;;;17.10;88.40;;;;;;2076156;28;20070;-82
2021/07/09 01:41:09;;;;;;;8.70;6.68;;;17.10;89.00;;;;;;2069286;28;20011;-84
2021/07/09 01:42:11;;;;;;;8.27;6.10;;;17.10;88.40;;;;;;2067752;28;20015;-83
2021/07/09 01:43:11;;;;;;;8.20;6.32;;;17.10;88.40;;;;;;2079405;28;20002;-84
2021/07/09 01:44:12;;;;;;;8.75;6.68;;;17.10;88.30;;;;;;2079011;28;20081;-84
2021/07/09 01:45:13;;;;;;;8.57;6.50;;;17.10;88.20;;;;;;2066071;28;20031;-85
2021/07/09 01:46:14;;;;;;;10.18;6.72;;;17.10;88.20;;;;;;2071357;28;20409;-84
2021/07/09 01:47:14;;;;;;;8.30;6.47;;;17.10;88.20;;;;;;2074478;28;20128;-84
2021/07/09 01:48:15;;;;;;;9.38;6.45;;;17.10;88.20;;;;;;2077424;28;20026;-83
2021/07/09 01:49:16;;;;;;;8.68;6.13;;;17.00;88.10;;;;;;2077981;28;20041;-83
2021/07/09 01:50:17;;;;;;;8.63;6.22;;;17.10;88.20;;;;;;2074774;28;20030;-84
2021/07/09 01:51:18;;;;;;;8.30;6.03;;;17.10;88.80;;;;;;2084004;28;20026;-84
2021/07/09 01:52:20;;;;;;;9.02;6.57;;;17.00;88.20;;;;;;2082979;28;20105;-83
2021/07/09 01:53:20;;;;;;;9.50;6.35;;;17.00;88.20;;;;;;2088125;28;20029;-84
2021/07/09 01:54:22;;;;;;;8.38;6.55;;;17.10;88.20;;;;;;2074382;28;20524;-84
2021/07/09 01:55:24;;;;;;;8.10;6.63;;;17.10;88.30;;;;;;2074564;28;20130;-84
2021/07/09 01:56:25;;;;;;;8.15;6.28;;;17.10;88.30;;;;;;2065797;28;20030;-84
2021/07/09 01:57:29;;;;;;;8.30;6.35;;;17.10;88.30;;;;;;2065354;28;20034;-84
2021/07/09 01:58:30;;;;;;;9.00;6.53;;;17.10;88.30;;;;;;2074773;28;20022;-84
2021/07/09 01:59:30;;;;;;;9.13;6.55;;;17.10;88.80;;;;;;2065971;28;20512;-85
2021/07/09 02:00:31;;;;;;;8.60;6.75;;;17.00;88.70;;;;;;2073771;28;20516;-84
2021/07/09 02:01:33;;;;;;;9.02;6.55;;;17.00;88.10;;;;;;2076299;28;20026;-84
2021/07/09 02:02:33;;;;;;;9.45;6.30;;;17.00;88.10;;;;;;2074312;28;20117;-84
2021/07/09 02:03:35;;;;;;;8.38;6.68;;;17.00;88.10;;;;;;2065852;28;20026;-84
2021/07/09 02:04:54;;;;;;;10.00;6.88;;;17.00;88.10;;;;;;2067805;28;20025;-84
2021/07/09 02:05:55;;;;;;;8.20;6.07;;;17.00;88.10;;;;;;2071325;28;20052;-84
2021/07/09 02:06:55;;;;;;;8.32;6.82;;;17.00;88.10;;;;;;2071538;28;20069;-84
2021/07/09 02:07:56;;;;;;;8.77;6.53;;;17.00;88.00;;;;;;2083921;28;20010;-83
2021/07/09 02:08:57;;;;;;;8.82;6.28;;;17.00;88.00;;;;;;2099845;28;20012;-83
2021/07/09 02:09:58;;;;;;;8.25;6.80;;;17.00;88.00;;;;;;2083605;28;20021;-83
2021/07/09 02:10:58;;;;;;;9.93;6.80;;;17.00;88.00;;;;;;2077988;28;20063;-82
2021/07/09 02:12:00;;;;;;;8.55;6.18;;;17.00;88.00;;;;;;2083649;28;20026;-84
2021/07/09 02:13:02;;;;;;;9.38;6.95;;;17.00;88.00;;;;;;2091795;28;20029;-84
2021/07/09 02:14:02;;;;;;;9.07;6.65;;;17.00;88.10;;;;;;2068961;28;20033;-84
2021/07/09 02:15:15;;;;;;;9.70;6.78;;;16.90;88.10;;;;;;2073602;28;20030;-84
2021/07/09 02:16:16;;;;;;;9.20;6.70;;;17.00;88.20;;;;;;2073685;28;20030;-83
2021/07/09 02:17:18;;;;;;;9.40;6.63;;;16.90;88.10;;;;;;2073795;28;20026;-83
2021/07/09 02:18:19;;;;;;;9.02;6.32;;;16.90;88.10;;;;;;2065315;28;20037;-84
2021/07/09 02:19:20;;;;;;;9.90;6.88;;;16.90;88.00;;;;;;2061315;28;20054;-84
2021/07/09 02:20:22;;;;;;;8.52;6.00;;;16.90;88.10;;;;;;2070062;28;20086;-84
2021/07/09 02:21:23;;;;;;;7.68;5.90;;;16.90;88.10;;;;;;2075123;28;20022;-84
2021/07/09 02:22:24;;;;;;;8.68;6.30;;;16.90;88.10;;;;;;2080546;28;20103;-84
2021/07/09 02:23:25;;;;;;;8.75;6.82;;;16.90;88.10;;;;;;2073191;28;20144;-84
2021/07/09 02:24:25;;;;;;;8.18;6.22;;;16.90;88.20;;;;;;2081572;28;20033;-85
2021/07/09 02:25:26;;;;;;;8.80;6.53;;;16.90;88.20;;;;;;2072656;28;20384;-84
2021/07/09 02:26:27;;;;;;;8.77;6.43;;;16.90;88.20;;;;;;2065382;28;20038;-84
2021/07/09 02:27:28;;;;;;;8.10;6.30;;;16.80;88.80;;;;;;2065239;28;20427;-84
2021/07/09 02:28:28;;;;;;;8.93;6.28;;;16.80;88.20;;;;;;2057094;28;20487;-84
2021/07/09 02:29:30;;;;;;;8.20;6.03;;;16.80;88.20;;;;;;2065308;28;20167;-84
2021/07/09 02:30:31;;;;;;;7.70;6.07;;;16.80;88.20;;;;;;2063525;28;20014;-84
2021/07/09 02:31:31;;;;;;;7.03;5.47;;;16.80;88.20;;;;;;2073381;28;20033;-84
2021/07/09 02:32:32;;;;;;;9.05;6.32;;;16.80;88.10;;;;;;2073452;28;20026;-84
2021/07/09 02:33:33;;;;;;;8.27;6.47;;;16.80;88.20;;;;;;2073022;28;20172;-84
2021/07/09 02:34:34;;;;;;;8.13;5.95;;;16.80;88.20;;;;;;2057041;28;20543;-84
2021/07/09 02:35:38;;;;;;;7.85;6.05;;;16.80;88.20;;;;;;2065084;28;20097;-84
2021/07/09 02:36:38;;;;;;;8.40;6.40;;;16.80;88.30;;;;;;2058108;28;20031;-84
2021/07/09 02:37:40;;;;;;;8.85;6.43;;;16.80;88.40;;;;;;2061350;28;20572;-84
2021/07/09 02:38:40;;;;;;;8.57;6.63;;;16.80;88.30;;;;;;2067453;28;20057;-84
2021/07/09 02:39:41;;;;;;;8.68;6.78;;;16.80;88.30;;;;;;2064517;28;20575;-84
2021/07/09 02:40:43;;;;;;;8.98;6.07;;;16.70;88.30;;;;;;2061454;28;20034;-84
2021/07/09 02:41:44;;;;;;;8.55;6.40;;;16.70;88.30;;;;;;2065782;28;20034;-84
2021/07/09 02:42:48;;;;;;;7.47;5.93;;;16.70;88.40;;;;;;2073182;28;20061;-84
2021/07/09 02:43:49;;;;;;;9.25;6.68;;;16.70;88.40;;;;;;2077610;28;20025;-84
2021/07/09 02:44:49;;;;;;;8.43;6.50;;;16.70;89.10;;;;;;2068666;28;20026;-84
2021/07/09 02:45:50;;;;;;;9.07;6.50;;;16.70;88.50;;;;;;2065273;28;20538;-84
2021/07/09 02:46:52;;;;;;;9.50;7.13;;;16.60;88.50;;;;;;2057098;28;20039;-84
2021/07/09 02:47:53;;;;;;;8.32;6.35;;;16.60;88.50;;;;;;2073557;28;20037;-84
2021/07/09 02:48:53;;;;;;;8.73;6.80;;;16.60;88.60;;;;;;2090252;28;20025;-85
2021/07/09 02:49:54;;;;;;;8.60;6.35;;;16.60;88.60;;;;;;2075063;28;20022;-85
2021/07/09 02:50:55;;;;;;;9.13;6.80;;;16.60;88.60;;;;;;2064962;28;20030;-85
2021/07/09 02:51:55;;;;;;;8.07;6.28;;;16.60;88.60;;;;;;2064460;28;20031;-85
2021/07/09 02:52:56;;;;;;;8.10;6.10;;;16.50;88.60;;;;;;2057106;28;20041;-85
2021/07/09 02:53:57;;;;;;;7.85;6.30;;;16.50;88.70;;;;;;2065947;28;20062;-85
2021/07/09 02:54:57;;;;;;;8.80;6.50;;;16.50;88.80;;;;;;2077433;28;20028;-84
2021/07/09 02:55:58;;;;;;;9.57;6.43;;;16.50;88.80;;;;;;2073201;28;20081;-85
2021/07/09 02:56:58;;;;;;;9.70;6.45;;;16.50;88.80;;;;;;2056572;28;20074;-85
2021/07/09 02:57:59;;;;;;;8.73;6.57;;;16.50;88.90;;;;;;2057621;28;20035;-85
2021/07/09 02:59:00;;;;;;;9.15;6.43;;;16.50;88.90;;;;;;2049222;29;20394;-85
2021/07/09 03:00:01;;;;;;;8.55;6.63;;;16.50;89.00;;;;;;2052470;28;20086;-85
2021/07/09 03:01:01;;;;;;;8.75;6.43;;;16.50;89.00;;;;;;2064986;28;20121;-84
2021/07/09 03:02:02;;;;;;;8.10;6.03;;;16.50;89.00;;;;;;2056743;28;20023;-85
2021/07/09 03:03:03;;;;;;;8.82;6.30;;;16.50;89.00;;;;;;2056774;28;20517;-85
2021/07/09 03:04:04;;;;;;;8.15;6.20;;;16.50;89.00;;;;;;2065109;28;20045;-85
2021/07/09 03:05:06;;;;;;;7.95;6.20;;;16.50;89.00;;;;;;2075860;28;20021;-85
2021/07/09 03:06:06;;;;;;;9.27;6.57;;;16.50;89.00;;;;;;2065046;28;20042;-84
2021/07/09 03:07:07;;;;;;;9.00;6.32;;;16.50;89.50;;;;;;2064812;28;20480;-85
2021/07/09 03:08:08;;;;;;;9.65;6.22;;;16.50;89.00;;;;;;2062698;28;20393;-85
2021/07/09 03:09:10;;;;;;;9.57;6.43;;;16.50;89.10;;;;;;2074692;28;20060;-85
2021/07/09 03:10:11;;;;;;;9.00;6.25;;;16.50;89.10;;;;;;2056691;28;20089;-85
2021/07/09 03:11:12;;;;;;;9.32;6.30;;;16.50;89.10;;;;;;2063641;28;20124;-84
2021/07/09 03:12:13;;;;;;;9.52;7.10;;;16.50;89.20;;;;;;2072403;28;20092;-85
2021/07/09 03:13:14;;;;;;;9.52;6.93;;;16.50;89.20;;;;;;2078817;28;20619;-85
2021/07/09 03:14:15;;;;;;;7.60;5.93;;;16.50;89.20;;;;;;2081092;28;20029;-84
2021/07/09 03:15:16;;;;;;;8.95;6.22;;;16.50;89.30;;;;;;2072912;28;20507;-85
2021/07/09 03:16:17;;;;;;;8.70;6.40;;;16.50;89.30;;;;;;2064899;28;20031;-84
2021/07/09 03:17:17;;;;;;;8.85;6.18;;;16.50;89.30;;;;;;2069659;28;20555;-85
2021/07/09 03:18:18;;;;;;;9.60;6.32;;;16.50;89.30;;;;;;2072968;28;20054;-84
2021/07/09 03:19:19;;;;;;;8.57;5.80;;;16.60;89.30;;;;;;2081202;28;20033;-84
2021/07/09 03:20:19;;;;;;;8.65;6.10;;;16.50;89.30;;;;;;2066435;28;20033;-84
2021/07/09 03:21:20;;;;;;;7.78;6.10;;;16.60;89.40;;;;;;2063767;28;20421;-84
2021/07/09 03:22:21;;;;;;;8.20;6.20;;;16.60;89.40;;;;;;2055171;28;20050;-84
2021/07/09 03:23:23;;;;;;;8.65;6.22;;;16.60;89.30;;;;;;2062090;28;20580;-84
2021/07/09 03:24:24;;;;;;;8.93;5.78;;;16.60;89.30;;;;;;2064876;28;20026;-84
2021/07/09 03:25:24;;;;;;;8.93;6.25;;;16.60;89.30;;;;;;2058890;28;20528;-84
2021/07/09 03:26:25;;;;;;;10.15;6.38;;;16.60;89.30;;;;;;2073105;28;20100;-84
2021/07/09 03:27:26;;;;;;;9.32;6.40;;;16.70;89.30;;;;;;2072285;28;20068;-84
2021/07/09 03:28:27;;;;;;;9.25;6.70;;;16.70;89.30;;;;;;2073231;28;20056;-84
2021/07/09 03:29:28;;;;;;;8.30;6.00;;;16.70;89.40;;;;;;2072094;28;20038;-84
2021/07/09 03:30:28;;;;;;;8.63;6.10;;;16.70;89.40;;;;;;2064770;28;20030;-85
2021/07/09 03:31:32;;;;;;;7.97;6.28;;;16.70;89.30;;;;;;2061450;28;20026;-84
2021/07/09 03:32:32;;;;;;;8.23;6.03;;;16.70;89.30;;;;;;2065587;28;20040;-84
2021/07/09 03:33:33;;;;;;;8.95;6.22;;;16.70;89.40;;;;;;2082113;28;20407;-84
2021/07/09 03:34:34;;;;;;;9.98;6.20;;;16.70;89.40;;;;;;2066560;28;20034;-84
2021/07/09 03:35:35;;;;;;;8.60;6.28;;;16.70;89.40;;;;;;2060886;28;20031;-84
2021/07/09 03:36:36;;;;;;;8.30;6.00;;;16.70;89.40;;;;;;2067166;28;20076;-84
2021/07/09 03:37:37;;;;;;;7.82;5.95;;;16.70;89.50;;;;;;2064848;28;20034;-84
2021/07/09 03:38:38;;;;;;;9.23;6.20;;;16.60;89.40;;;;;;2070472;28;20034;-85
2021/07/09 03:39:38;;;;;;;9.18;6.45;;;16.70;90.00;;;;;;2081120;28;20152;-84
2021/07/09 03:40:39;;;;;;;7.38;5.78;;;16.60;89.50;;;;;;2064918;28;20033;-85
2021/07/09 03:41:41;;;;;;;8.02;5.40;;;16.70;89.60;;;;;;2060756;28;20468;-85
2021/07/09 03:42:41;;;;;;;9.60;6.00;;;16.60;89.60;;;;;;2074646;28;20038;-84
2021/07/09 03:43:43;;;;;;;9.35;6.28;;;16.60;89.60;;;;;;2074473;28;20033;-85
2021/07/09 03:44:44;;;;;;;7.60;5.63;;;16.70;89.60;;;;;;2073572;28;20507;-85
2021/07/09 03:45:44;;;;;;;8.35;5.68;;;16.60;89.60;;;;;;2064911;28;20026;-85
2021/07/09 03:46:45;;;;;;;8.93;5.90;;;16.60;89.60;;;;;;2056864;28;20505;-84
2021/07/09 03:47:47;;;;;;;7.82;5.90;;;16.60;89.60;;;;;;2056488;28;20030;-85
2021/07/09 03:48:47;;;;;;;8.20;5.95;;;16.60;89.70;;;;;;2062542;28;20055;-85
2021/07/09 03:49:48;;;;;;;7.75;5.82;;;16.60;89.70;;;;;;2064992;28;20030;-84
2021/07/09 03:50:49;;;;;;;8.30;5.60;;;16.60;89.80;;;;;;2056781;28;20493;-84
2021/07/09 03:51:49;;;;;;;7.60;5.50;;;16.60;89.80;;;;;;2064604;28;20062;-84
2021/07/09 03:52:50;;;;;;;8.02;5.65;;;16.50;89.80;;;;;;2064799;28;20037;-84
2021/07/09 03:53:54;;;;;;;8.43;6.13;;;16.50;89.90;;;;;;2072722;28;20482;-84
2021/07/09 03:54:55;;;;;;;8.18;5.47;;;16.50;89.90;;;;;;2082325;28;20037;-84
2021/07/09 03:55:55;;;;;;;7.53;5.80;;;16.50;90.00;;;;;;2073484;28;20030;-84
2021/07/09 03:56:56;;;;;;;9.07;5.78;;;16.50;89.90;;;;;;2072388;28;20099;-84
2021/07/09 03:57:57;;;;;;;8.48;5.93;;;16.50;89.90;;;;;;2081034;28;20037;-84
2021/07/09 03:58:58;;;;;;;8.35;6.18;;;16.40;89.90;;;;;;2080820;28;20450;-84
2021/07/09 03:59:59;;;;;;;8.27;6.18;;;16.40;90.00;;;;;;2083121;28;20025;-83
2021/07/09 04:01:00;;;;;;;8.10;5.93;;;16.40;90.20;;;;;;2077449;28;20037;-84
2021/07/09 04:02:01;;;;;;;8.40;6.07;;;16.30;90.00;;;;;;2056362;28;20082;-84
2021/07/09 04:03:02;;;;;;;8.68;6.10;;;16.30;90.00;;;;;;2048871;28;20371;-84
2021/07/09 04:04:03;;;;;;;8.18;6.47;;;16.30;90.00;;;;;;2064653;28;20121;-84
2021/07/09 04:05:04;;;;;;;8.50;6.00;;;16.30;90.10;;;;;;2064802;28;20060;-84
2021/07/09 04:06:05;;;;;;;7.90;5.78;;;16.20;90.10;;;;;;2069911;28;20132;-84
2021/07/09 04:07:06;;;;;;;10.52;6.60;;;16.20;90.20;;;;;;2072715;28;21789;-84
2021/07/09 04:08:06;;;;;;;7.72;6.03;;;16.20;90.20;;;;;;2057055;28;20050;-84
2021/07/09 04:09:07;;;;;;;8.85;6.38;;;16.20;90.20;;;;;;2056666;28;20105;-84
2021/07/09 04:10:08;;;;;;;7.97;6.05;;;16.20;90.30;;;;;;2066432;28;20654;-84
2021/07/09 04:11:09;;;;;;;7.78;6.40;;;16.10;90.20;;;;;;2074587;28;20065;-84
2021/07/09 04:12:09;;;;;;;8.68;6.45;;;16.10;90.30;;;;;;2079886;28;20033;-83
2021/07/09 04:13:12;;;;;;;8.25;5.68;;;16.10;90.30;;;;;;2074723;28;20041;-83
2021/07/09 04:14:14;;;;;;;7.45;5.82;;;16.10;90.30;;;;;;2074136;28;20026;-84
2021/07/09 04:15:14;;;;;;;7.65;5.60;;;16.10;90.30;;;;;;2066253;28;20121;-84
2021/07/09 04:16:15;;;;;;;8.93;6.38;;;16.10;90.30;;;;;;2074445;28;20455;-85
2021/07/09 04:17:16;;;;;;;8.02;5.82;;;16.20;90.30;;;;;;2076395;28;20033;-84
2021/07/09 04:18:16;;;;;;;8.60;5.70;;;16.20;90.30;;;;;;2057956;28;20027;-84
2021/07/09 04:19:17;;;;;;;8.18;5.90;;;16.20;90.30;;;;;;2065677;28;20026;-85
2021/07/09 04:20:18;;;;;;;7.85;5.85;;;16.20;90.30;;;;;;2066107;28;20033;-85
2021/07/09 04:21:19;;;;;;;9.18;6.10;;;16.30;90.20;;;;;;2059510;28;20062;-85
2021/07/09 04:22:20;;;;;;;7.43;5.63;;;16.30;90.20;;;;;;2066205;28;20034;-84
2021/07/09 04:23:21;;;;;;;8.27;6.05;;;16.30;90.10;;;;;;2073342;28;20030;-84
2021/07/09 04:24:21;;;;;;;7.45;5.93;;;16.40;90.10;;;;;;2066315;28;20030;-84
2021/07/09 04:25:22;;;;;;;8.68;6.05;;;16.40;90.10;;;;;;2066417;28;20034;-85
2021/07/09 04:26:23;;;;;;;11.02;6.50;;;16.40;90.00;;;;;;2073950;28;20068;-86
2021/07/09 04:27:24;;;;;;;8.77;6.53;;;16.40;90.00;;;;;;2066278;28;20030;-85
2021/07/09 04:28:25;;;;;;;8.70;6.53;;;16.40;89.90;;;;;;2058439;28;20151;-85
2021/07/09 04:29:25;;;;;;;9.55;6.65;;;16.40;89.90;;;;;;2090845;28;20586;-85
2021/07/09 04:30:26;;;;;;;8.35;6.20;;;16.50;89.80;;;;;;2076858;28;20399;-84
2021/07/09 04:31:27;;;;;;;8.57;6.45;;;16.50;89.70;;;;;;2065764;28;20022;-85
2021/07/09 04:32:28;;;;;;;9.23;6.97;;;16.60;90.10;;;;;;2081918;28;20473;-84
2021/07/09 04:33:29;;;;;;;9.75;6.65;;;16.50;89.40;;;;;;2074080;28;20076;-85
2021/07/09 04:34:30;;;;;;;8.70;6.75;;;16.50;89.40;;;;;;2063549;28;20524;-84
2021/07/09 04:35:30;;;;;;;8.65;6.43;;;16.60;89.40;;;;;;2074227;28;20037;-85
2021/07/09 04:36:31;;;;;;;9.77;6.82;;;16.60;89.40;;;;;;2090450;28;20025;-84
2021/07/09 04:37:32;;;;;;;9.23;6.53;;;16.60;89.30;;;;;;2066153;28;20033;-85
2021/07/09 04:38:32;;;;;;;9.32;7.03;;;16.60;89.30;;;;;;2066117;28;20026;-84
2021/07/09 04:39:33;;;;;;;10.38;7.40;;;16.60;89.30;;;;;;2072714;28;20033;-84
2021/07/09 04:40:33;;;;;;;9.90;6.82;;;16.60;89.30;;;;;;2068840;28;20444;-85
2021/07/09 04:41:34;;;;;;;10.40;7.20;;;16.60;89.20;;;;;;2080398;28;20128;-85
2021/07/09 04:42:35;;;;;;;10.43;7.22;;;16.60;89.20;;;;;;2081447;28;20033;-84
2021/07/09 04:43:38;;;;;;;8.82;6.30;;;16.70;89.20;;;;;;2070799;28;20053;-84
2021/07/09 04:44:39;;;;;;;8.93;6.53;;;16.70;89.20;;;;;;2068395;28;20021;-84
2021/07/09 04:45:40;;;;;;;10.18;7.10;;;16.70;89.20;;;;;;2063925;28;20541;-85
2021/07/09 04:46:41;;;;;;;9.02;6.38;;;16.70;89.10;;;;;;2071375;28;20037;-84
2021/07/09 04:47:42;;;;;;;9.32;6.95;;;16.70;89.10;;;;;;2065263;28;20061;-84
2021/07/09 04:48:43;;;;;;;9.35;7.07;;;16.80;89.10;;;;;;2073701;28;20030;-84
2021/07/09 04:49:45;;;;;;;10.00;6.85;;;16.80;89.00;;;;;;2071814;28;20056;-85
2021/07/09 04:50:46;;;;;;;9.30;6.85;;;16.80;89.00;;;;;;2078630;28;20076;-84
2021/07/09 04:51:47;;;;;;;9.65;7.43;;;16.80;89.00;;;;;;2071758;28;20026;-84
2021/07/09 04:52:47;;;;;;;9.43;7.30;;;16.80;88.90;;;;;;2065889;28;20040;-84
2021/07/09 04:53:48;;;;;;;9.32;6.63;;;16.80;88.90;;;;;;2065546;28;20030;-84
2021/07/09 04:54:49;;;;;;;10.27;6.90;;;16.80;88.90;;;;;;2073872;28;20041;-84
2021/07/09 04:55:49;;;;;;;8.77;6.57;;;16.90;88.90;;;;;;2082583;28;20179;-84
2021/07/09 04:56:50;;;;;;;9.95;7.15;;;16.90;88.80;;;;;;2081600;28;20511;-84
2021/07/09 04:57:51;;;;;;;10.50;7.30;;;16.90;88.80;;;;;;2074170;28;20488;-84
2021/07/09 04:58:51;;;;;;;9.57;6.88;;;16.90;88.80;;;;;;2066988;28;20034;-84
2021/07/09 04:59:52;;;;;;;9.88;7.05;;;16.90;88.80;;;;;;2057219;28;20031;-84
2021/07/09 05:00:53;;;;;;;9.43;6.65;;;17.00;88.80;;;;;;2074191;28;20036;-84
2021/07/09 05:01:53;;;;;;;10.07;7.20;;;17.00;88.70;;;;;;2076584;28;20030;-84
2021/07/09 05:03:01;;;;;;;10.18;7.35;;;17.10;88.60;;;;;;2071775;28;20045;-84
2021/07/09 05:04:01;;;;;;;10.25;7.00;;;17.10;88.50;;;;;;2065124;28;20169;-84
2021/07/09 05:05:04;;;;;;;9.75;6.95;;;17.10;88.30;;;;;;2058550;28;20101;-84
2021/07/09 05:06:05;;;;;;;10.05;7.07;;;17.10;88.30;;;;;;2058567;28;20030;-84
2021/07/09 05:07:05;;;;;;;10.05;6.97;;;17.10;88.30;;;;;;2066142;28;20048;-84
2021/07/09 05:08:07;;;;;;;9.98;7.25;;;17.10;88.30;;;;;;2072478;28;20042;-84
2021/07/09 05:09:08;;;;;;;12.13;8.23;;;17.20;88.40;;;;;;2082173;28;20038;-84
2021/07/09 05:10:10;;;;;;;11.30;7.82;;;17.20;88.30;;;;;;2080813;28;20575;-84
2021/07/09 05:11:10;;;;;;;10.40;7.13;;;17.20;88.20;;;;;;2082844;28;20028;-84
2021/07/09 05:12:11;;;;;;;11.13;7.13;;;17.30;88.20;;;;;;2065675;28;20504;-84
2021/07/09 05:13:12;;;;;;;10.77;7.60;;;17.40;88.10;;;;;;2055727;28;20497;-85
2021/07/09 05:14:12;;;;;;;12.25;7.38;;;17.40;87.90;;;;;;2071688;28;20562;-84
2021/07/09 05:15:13;;;;;;;10.10;6.97;;;17.50;87.70;;;;;;2090418;28;20037;-84
2021/07/09 05:16:14;;;;;;;10.05;7.38;;;17.60;87.60;;;;;;2067272;28;20117;-84
2021/07/09 05:17:15;;;;;;;10.65;7.20;;;17.60;87.40;;;;;;2068181;28;20046;-85
2021/07/09 05:18:15;;;;;;;10.82;7.50;;;17.70;87.30;;;;;;2057480;28;20019;-85